sensor_id;sensor_type;location;lat;lon;timestamp;P1;durP1;ratioP1;P2;durP2;ratioP2
12784;SDS011;6456;42.680;23.260;2023-04-24T00:00:14;8.97;;;7.87;;
12784;SDS011;6456;42.680;23.260;2023-04-24T00:02:41;8.20;;;7.40;;
12784;SDS011;6456;42.680;23.260;2023-04-24T00:05:10;9.40;;;7.47;;
12784;SDS011;6456;42.680;23.260;2023-04-24T00:07:37;9.77;;;7.57;;
12784;SDS011;6456;42.680;23.260;2023-04-24T00:10:04;12.23;;;7.40;;
12784;SDS011;6456;42.680;23.260;2023-04-24T00:12:32;8.67;;;7.63;;
12784;SDS011;6456;42.680;23.260;2023-04-24T00:15:00;9.13;;;7.87;;
12784;SDS011;6456;42.680;23.260;2023-04-24T00:17:28;9.10;;;7.77;;
12784;SDS011;6456;42.680;23.260;2023-04-24T00:19:55;10.80;;;8.30;;
12784;SDS011;6456;42.680;23.260;2023-04-24T00:22:23;10.17;;;8.37;;
12784;SDS011;6456;42.680;23.260;2023-04-24T00:24:50;9.27;;;7.80;;
12784;SDS011;6456;42.680;23.260;2023-04-24T00:27:17;11.17;;;7.17;;
12784;SDS011;6456;42.680;23.260;2023-04-24T00:29:44;7.57;;;6.87;;
12784;SDS011;6456;42.680;23.260;2023-04-24T00:32:12;11.10;;;7.63;;
12784;SDS011;6456;42.680;23.260;2023-04-24T00:34:39;8.13;;;7.33;;
12784;SDS011;6456;42.680;23.260;2023-04-24T00:37:06;8.10;;;7.30;;
12784;SDS011;6456;42.680;23.260;2023-04-24T00:39:33;9.97;;;7.67;;
12784;SDS011;6456;42.680;23.260;2023-04-24T00:42:00;10.57;;;7.87;;
12784;SDS011;6456;42.680;23.260;2023-04-24T00:44:28;12.87;;;7.70;;
12784;SDS011;6456;42.680;23.260;2023-04-24T00:46:55;11.17;;;7.60;;
12784;SDS011;6456;42.680;23.260;2023-04-24T00:49:24;11.40;;;7.87;;
12784;SDS011;6456;42.680;23.260;2023-04-24T00:51:51;11.60;;;7.70;;
12784;SDS011;6456;42.680;23.260;2023-04-24T00:54:19;11.50;;;7.80;;
12784;SDS011;6456;42.680;23.260;2023-04-24T00:56:45;9.10;;;7.87;;
12784;SDS011;6456;42.680;23.260;2023-04-24T00:59:12;9.33;;;7.90;;
12784;SDS011;6456;42.680;23.260;2023-04-24T01:01:41;10.23;;;7.53;;
12784;SDS011;6456;42.680;23.260;2023-04-24T01:04:08;9.27;;;7.70;;
12784;SDS011;6456;42.680;23.260;2023-04-24T01:06:38;14.30;;;7.80;;
12784;SDS011;6456;42.680;23.260;2023-04-24T01:09:06;11.13;;;8.40;;
12784;SDS011;6456;42.680;23.260;2023-04-24T01:11:34;12.63;;;8.70;;
12784;SDS011;6456;42.680;23.260;2023-04-24T01:14:01;11.40;;;8.40;;
12784;SDS011;6456;42.680;23.260;2023-04-24T01:16:28;9.00;;;8.10;;
12784;SDS011;6456;42.680;23.260;2023-04-24T01:18:55;10.07;;;8.17;;
12784;SDS011;6456;42.680;23.260;2023-04-24T01:21:22;9.33;;;7.67;;
12784;SDS011;6456;42.680;23.260;2023-04-24T01:23:55;10.53;;;8.07;;
12784;SDS011;6456;42.680;23.260;2023-04-24T01:26:22;10.07;;;7.97;;
12784;SDS011;6456;42.680;23.260;2023-04-24T01:28:50;9.93;;;8.27;;
12784;SDS011;6456;42.680;23.260;2023-04-24T01:31:18;11.57;;;9.47;;
12784;SDS011;6456;42.680;23.260;2023-04-24T01:33:45;10.40;;;7.87;;
12784;SDS011;6456;42.680;23.260;2023-04-24T01:36:13;9.00;;;7.33;;
12784;SDS011;6456;42.680;23.260;2023-04-24T01:38:42;8.40;;;6.57;;
12784;SDS011;6456;42.680;23.260;2023-04-24T01:41:11;10.13;;;7.50;;
12784;SDS011;6456;42.680;23.260;2023-04-24T01:43:38;12.33;;;7.47;;
12784;SDS011;6456;42.680;23.260;2023-04-24T01:46:05;11.50;;;7.83;;
12784;SDS011;6456;42.680;23.260;2023-04-24T01:48:33;12.17;;;7.83;;
12784;SDS011;6456;42.680;23.260;2023-04-24T01:51:00;7.60;;;6.77;;
12784;SDS011;6456;42.680;23.260;2023-04-24T01:53:27;9.30;;;7.13;;
12784;SDS011;6456;42.680;23.260;2023-04-24T01:55:53;8.00;;;6.77;;
12784;SDS011;6456;42.680;23.260;2023-04-24T01:58:22;9.97;;;7.10;;
12784;SDS011;6456;42.680;23.260;2023-04-24T02:00:49;8.43;;;7.50;;
12784;SDS011;6456;42.680;23.260;2023-04-24T02:03:16;9.67;;;6.50;;
12784;SDS011;6456;42.680;23.260;2023-04-24T02:05:43;9.13;;;6.80;;
12784;SDS011;6456;42.680;23.260;2023-04-24T02:08:10;11.57;;;7.00;;
12784;SDS011;6456;42.680;23.260;2023-04-24T02:10:37;7.33;;;6.27;;
12784;SDS011;6456;42.680;23.260;2023-04-24T02:13:04;6.97;;;6.13;;
12784;SDS011;6456;42.680;23.260;2023-04-24T02:15:32;7.13;;;6.43;;
12784;SDS011;6456;42.680;23.260;2023-04-24T02:18:01;7.30;;;6.60;;
12784;SDS011;6456;42.680;23.260;2023-04-24T02:20:27;7.47;;;6.53;;
12784;SDS011;6456;42.680;23.260;2023-04-24T02:22:54;9.07;;;6.30;;
12784;SDS011;6456;42.680;23.260;2023-04-24T02:25:21;8.00;;;6.10;;
12784;SDS011;6456;42.680;23.260;2023-04-24T02:27:48;7.67;;;6.67;;
12784;SDS011;6456;42.680;23.260;2023-04-24T02:30:15;7.10;;;6.40;;
12784;SDS011;6456;42.680;23.260;2023-04-24T02:32:43;8.03;;;6.10;;
12784;SDS011;6456;42.680;23.260;2023-04-24T02:35:10;9.53;;;6.33;;
12784;SDS011;6456;42.680;23.260;2023-04-24T02:37:38;7.53;;;5.77;;
12784;SDS011;6456;42.680;23.260;2023-04-24T02:40:06;9.47;;;6.20;;
12784;SDS011;6456;42.680;23.260;2023-04-24T02:42:34;8.00;;;6.73;;
12784;SDS011;6456;42.680;23.260;2023-04-24T02:45:01;7.07;;;6.27;;
12784;SDS011;6456;42.680;23.260;2023-04-24T02:47:28;7.40;;;5.87;;
12784;SDS011;6456;42.680;23.260;2023-04-24T02:49:56;9.23;;;6.37;;
12784;SDS011;6456;42.680;23.260;2023-04-24T02:52:23;7.70;;;6.93;;
12784;SDS011;6456;42.680;23.260;2023-04-24T02:54:49;7.50;;;6.73;;
12784;SDS011;6456;42.680;23.260;2023-04-24T02:57:16;8.73;;;7.27;;
12784;SDS011;6456;42.680;23.260;2023-04-24T02:59:44;11.30;;;7.23;;
12784;SDS011;6456;42.680;23.260;2023-04-24T03:02:11;10.10;;;7.43;;
12784;SDS011;6456;42.680;23.260;2023-04-24T03:07:25;9.10;;;7.83;;
12784;SDS011;6456;42.680;23.260;2023-04-24T03:09:52;9.33;;;7.70;;
12784;SDS011;6456;42.680;23.260;2023-04-24T03:12:18;9.47;;;7.93;;
12784;SDS011;6456;42.680;23.260;2023-04-24T03:14:45;8.53;;;7.73;;
12784;SDS011;6456;42.680;23.260;2023-04-24T03:17:12;9.67;;;7.50;;
12784;SDS011;6456;42.680;23.260;2023-04-24T03:19:39;9.93;;;7.03;;
12784;SDS011;6456;42.680;23.260;2023-04-24T03:22:07;8.60;;;7.10;;
12784;SDS011;6456;42.680;23.260;2023-04-24T03:24:34;7.97;;;7.13;;
12784;SDS011;6456;42.680;23.260;2023-04-24T03:27:01;12.97;;;8.03;;
12784;SDS011;6456;42.680;23.260;2023-04-24T03:29:28;9.67;;;8.63;;
12784;SDS011;6456;42.680;23.260;2023-04-24T03:31:55;14.47;;;11.33;;
12784;SDS011;6456;42.680;23.260;2023-04-24T03:34:21;17.40;;;11.40;;
12784;SDS011;6456;42.680;23.260;2023-04-24T03:36:48;13.47;;;10.10;;
12784;SDS011;6456;42.680;23.260;2023-04-24T03:39:16;9.23;;;8.00;;
12784;SDS011;6456;42.680;23.260;2023-04-24T03:41:43;16.57;;;12.43;;
12784;SDS011;6456;42.680;23.260;2023-04-24T03:44:10;14.27;;;10.20;;
12784;SDS011;6456;42.680;23.260;2023-04-24T03:46:37;12.27;;;9.20;;
12784;SDS011;6456;42.680;23.260;2023-04-24T03:49:04;11.47;;;10.00;;
12784;SDS011;6456;42.680;23.260;2023-04-24T03:51:31;9.13;;;8.23;;
12784;SDS011;6456;42.680;23.260;2023-04-24T03:53:58;8.37;;;7.37;;
12784;SDS011;6456;42.680;23.260;2023-04-24T03:59:11;8.20;;;7.30;;
12784;SDS011;6456;42.680;23.260;2023-04-24T04:01:38;12.43;;;8.73;;
12784;SDS011;6456;42.680;23.260;2023-04-24T04:04:05;8.90;;;8.00;;
12784;SDS011;6456;42.680;23.260;2023-04-24T04:06:32;15.83;;;8.63;;
12784;SDS011;6456;42.680;23.260;2023-04-24T04:09:01;9.97;;;8.07;;
12784;SDS011;6456;42.680;23.260;2023-04-24T04:11:28;9.37;;;6.70;;
12784;SDS011;6456;42.680;23.260;2023-04-24T04:13:57;9.13;;;8.13;;
12784;SDS011;6456;42.680;23.260;2023-04-24T04:16:24;13.97;;;7.30;;
12784;SDS011;6456;42.680;23.260;2023-04-24T04:18:51;16.53;;;7.67;;
12784;SDS011;6456;42.680;23.260;2023-04-24T04:21:18;9.47;;;7.17;;
12784;SDS011;6456;42.680;23.260;2023-04-24T04:23:45;10.63;;;7.40;;
12784;SDS011;6456;42.680;23.260;2023-04-24T04:26:13;13.10;;;7.67;;
12784;SDS011;6456;42.680;23.260;2023-04-24T04:28:40;16.80;;;8.03;;
12784;SDS011;6456;42.680;23.260;2023-04-24T04:31:08;15.03;;;7.53;;
12784;SDS011;6456;42.680;23.260;2023-04-24T04:33:35;10.80;;;6.93;;
12784;SDS011;6456;42.680;23.260;2023-04-24T04:36:03;7.40;;;6.13;;
12784;SDS011;6456;42.680;23.260;2023-04-24T04:38:30;12.03;;;7.27;;
12784;SDS011;6456;42.680;23.260;2023-04-24T04:40:57;10.10;;;7.27;;
12784;SDS011;6456;42.680;23.260;2023-04-24T04:43:24;10.13;;;7.20;;
12784;SDS011;6456;42.680;23.260;2023-04-24T04:45:51;11.80;;;7.30;;
12784;SDS011;6456;42.680;23.260;2023-04-24T04:48:21;8.97;;;6.10;;
12784;SDS011;6456;42.680;23.260;2023-04-24T04:50:47;7.90;;;6.87;;
12784;SDS011;6456;42.680;23.260;2023-04-24T04:53:14;9.63;;;6.90;;
12784;SDS011;6456;42.680;23.260;2023-04-24T04:55:41;7.90;;;6.70;;
12784;SDS011;6456;42.680;23.260;2023-04-24T04:58:08;10.33;;;6.97;;
12784;SDS011;6456;42.680;23.260;2023-04-24T05:00:35;13.03;;;6.93;;
12784;SDS011;6456;42.680;23.260;2023-04-24T05:03:02;12.30;;;7.57;;
12784;SDS011;6456;42.680;23.260;2023-04-24T05:05:31;8.97;;;6.77;;
12784;SDS011;6456;42.680;23.260;2023-04-24T05:07:58;9.67;;;7.17;;
12784;SDS011;6456;42.680;23.260;2023-04-24T05:10:25;9.90;;;6.50;;
12784;SDS011;6456;42.680;23.260;2023-04-24T05:12:52;12.20;;;6.50;;
12784;SDS011;6456;42.680;23.260;2023-04-24T05:15:18;12.33;;;6.53;;
12784;SDS011;6456;42.680;23.260;2023-04-24T05:17:45;27.47;;;7.40;;
12784;SDS011;6456;42.680;23.260;2023-04-24T05:20:12;11.57;;;6.33;;
12784;SDS011;6456;42.680;23.260;2023-04-24T05:22:41;14.53;;;7.00;;
12784;SDS011;6456;42.680;23.260;2023-04-24T05:25:08;13.77;;;6.60;;
12784;SDS011;6456;42.680;23.260;2023-04-24T05:27:35;8.90;;;5.60;;
12784;SDS011;6456;42.680;23.260;2023-04-24T05:30:02;21.57;;;7.20;;
12784;SDS011;6456;42.680;23.260;2023-04-24T05:32:29;6.50;;;5.80;;
12784;SDS011;6456;42.680;23.260;2023-04-24T05:34:56;11.00;;;5.43;;
12784;SDS011;6456;42.680;23.260;2023-04-24T05:37:23;11.53;;;5.63;;
12784;SDS011;6456;42.680;23.260;2023-04-24T05:39:51;11.43;;;5.77;;
12784;SDS011;6456;42.680;23.260;2023-04-24T05:42:18;10.17;;;5.93;;
12784;SDS011;6456;42.680;23.260;2023-04-24T05:44:45;7.57;;;5.67;;
12784;SDS011;6456;42.680;23.260;2023-04-24T05:47:11;7.23;;;5.60;;
12784;SDS011;6456;42.680;23.260;2023-04-24T05:49:38;7.03;;;5.47;;
12784;SDS011;6456;42.680;23.260;2023-04-24T05:52:05;9.53;;;5.50;;
12784;SDS011;6456;42.680;23.260;2023-04-24T05:54:33;8.50;;;6.70;;
12784;SDS011;6456;42.680;23.260;2023-04-24T05:57:02;12.30;;;7.30;;
12784;SDS011;6456;42.680;23.260;2023-04-24T05:59:32;11.30;;;6.90;;
12784;SDS011;6456;42.680;23.260;2023-04-24T06:01:59;9.07;;;7.03;;
12784;SDS011;6456;42.680;23.260;2023-04-24T06:04:26;10.37;;;6.33;;
12784;SDS011;6456;42.680;23.260;2023-04-24T06:06:53;13.03;;;9.57;;
12784;SDS011;6456;42.680;23.260;2023-04-24T06:09:21;9.77;;;6.97;;
12784;SDS011;6456;42.680;23.260;2023-04-24T06:11:48;9.90;;;7.20;;
12784;SDS011;6456;42.680;23.260;2023-04-24T06:14:17;10.57;;;7.60;;
12784;SDS011;6456;42.680;23.260;2023-04-24T06:16:43;12.13;;;9.87;;
12784;SDS011;6456;42.680;23.260;2023-04-24T06:19:10;9.53;;;7.40;;
12784;SDS011;6456;42.680;23.260;2023-04-24T06:21:37;9.33;;;6.60;;
12784;SDS011;6456;42.680;23.260;2023-04-24T06:24:04;10.23;;;7.50;;
12784;SDS011;6456;42.680;23.260;2023-04-24T06:26:31;9.53;;;7.27;;
12784;SDS011;6456;42.680;23.260;2023-04-24T06:28:57;11.30;;;7.50;;
12784;SDS011;6456;42.680;23.260;2023-04-24T06:31:26;10.27;;;7.03;;
12784;SDS011;6456;42.680;23.260;2023-04-24T06:33:53;10.30;;;6.97;;
12784;SDS011;6456;42.680;23.260;2023-04-24T06:36:20;8.63;;;6.40;;
12784;SDS011;6456;42.680;23.260;2023-04-24T06:38:47;9.33;;;7.13;;
12784;SDS011;6456;42.680;23.260;2023-04-24T06:41:14;9.87;;;7.33;;
12784;SDS011;6456;42.680;23.260;2023-04-24T06:43:41;9.40;;;7.90;;
12784;SDS011;6456;42.680;23.260;2023-04-24T06:46:08;11.20;;;9.93;;
12784;SDS011;6456;42.680;23.260;2023-04-24T06:48:36;16.80;;;11.63;;
12784;SDS011;6456;42.680;23.260;2023-04-24T06:51:03;15.67;;;12.10;;
12784;SDS011;6456;42.680;23.260;2023-04-24T06:53:29;12.77;;;10.10;;
12784;SDS011;6456;42.680;23.260;2023-04-24T06:55:56;12.23;;;10.80;;
12784;SDS011;6456;42.680;23.260;2023-04-24T06:58:24;14.30;;;9.77;;
12784;SDS011;6456;42.680;23.260;2023-04-24T07:00:51;10.00;;;8.10;;
12784;SDS011;6456;42.680;23.260;2023-04-24T07:03:18;8.63;;;7.37;;
12784;SDS011;6456;42.680;23.260;2023-04-24T07:05:46;11.87;;;7.97;;
12784;SDS011;6456;42.680;23.260;2023-04-24T07:08:13;12.07;;;6.83;;
12784;SDS011;6456;42.680;23.260;2023-04-24T07:10:42;10.03;;;6.80;;
12784;SDS011;6456;42.680;23.260;2023-04-24T07:13:09;8.70;;;6.30;;
12784;SDS011;6456;42.680;23.260;2023-04-24T07:15:36;9.23;;;6.87;;
12784;SDS011;6456;42.680;23.260;2023-04-24T07:18:02;9.47;;;6.97;;
12784;SDS011;6456;42.680;23.260;2023-04-24T07:20:29;9.70;;;7.40;;
12784;SDS011;6456;42.680;23.260;2023-04-24T07:22:57;8.50;;;6.30;;
12784;SDS011;6456;42.680;23.260;2023-04-24T07:25:24;9.37;;;6.83;;
12784;SDS011;6456;42.680;23.260;2023-04-24T07:27:51;6.83;;;5.80;;
12784;SDS011;6456;42.680;23.260;2023-04-24T07:30:19;10.83;;;7.00;;
12784;SDS011;6456;42.680;23.260;2023-04-24T07:32:46;8.33;;;6.70;;
12784;SDS011;6456;42.680;23.260;2023-04-24T07:35:13;8.60;;;6.90;;
12784;SDS011;6456;42.680;23.260;2023-04-24T07:37:40;12.07;;;7.33;;
12784;SDS011;6456;42.680;23.260;2023-04-24T07:40:12;7.80;;;6.97;;
12784;SDS011;6456;42.680;23.260;2023-04-24T07:42:39;8.37;;;6.50;;
12784;SDS011;6456;42.680;23.260;2023-04-24T07:45:06;7.60;;;6.80;;
12784;SDS011;6456;42.680;23.260;2023-04-24T07:47:33;10.73;;;6.57;;
12784;SDS011;6456;42.680;23.260;2023-04-24T07:50:01;9.57;;;7.20;;
12784;SDS011;6456;42.680;23.260;2023-04-24T07:52:28;11.67;;;7.20;;
12784;SDS011;6456;42.680;23.260;2023-04-24T07:54:55;8.23;;;6.70;;
12784;SDS011;6456;42.680;23.260;2023-04-24T07:57:26;8.07;;;7.23;;
12784;SDS011;6456;42.680;23.260;2023-04-24T07:59:53;9.07;;;7.07;;
12784;SDS011;6456;42.680;23.260;2023-04-24T08:02:21;10.47;;;7.50;;
12784;SDS011;6456;42.680;23.260;2023-04-24T08:04:51;10.47;;;7.40;;
12784;SDS011;6456;42.680;23.260;2023-04-24T08:07:18;9.60;;;7.10;;
12784;SDS011;6456;42.680;23.260;2023-04-24T08:09:45;13.13;;;7.67;;
12784;SDS011;6456;42.680;23.260;2023-04-24T08:12:12;14.47;;;8.23;;
12784;SDS011;6456;42.680;23.260;2023-04-24T08:14:40;12.60;;;8.13;;
12784;SDS011;6456;42.680;23.260;2023-04-24T08:17:07;9.20;;;7.20;;
12784;SDS011;6456;42.680;23.260;2023-04-24T08:19:34;11.07;;;7.67;;
12784;SDS011;6456;42.680;23.260;2023-04-24T08:22:01;12.13;;;7.43;;
12784;SDS011;6456;42.680;23.260;2023-04-24T08:24:29;7.90;;;7.10;;
12784;SDS011;6456;42.680;23.260;2023-04-24T08:26:56;8.50;;;6.70;;
12784;SDS011;6456;42.680;23.260;2023-04-24T08:29:23;9.53;;;7.00;;
12784;SDS011;6456;42.680;23.260;2023-04-24T08:31:53;8.57;;;7.63;;
12784;SDS011;6456;42.680;23.260;2023-04-24T08:34:20;8.50;;;7.70;;
12784;SDS011;6456;42.680;23.260;2023-04-24T08:36:47;9.37;;;7.33;;
12784;SDS011;6456;42.680;23.260;2023-04-24T08:39:14;9.10;;;7.20;;
12784;SDS011;6456;42.680;23.260;2023-04-24T08:41:42;8.33;;;7.13;;
12784;SDS011;6456;42.680;23.260;2023-04-24T08:44:10;8.37;;;7.13;;
12784;SDS011;6456;42.680;23.260;2023-04-24T08:46:37;10.10;;;7.10;;
12784;SDS011;6456;42.680;23.260;2023-04-24T08:49:08;11.40;;;7.57;;
12784;SDS011;6456;42.680;23.260;2023-04-24T08:51:35;8.83;;;6.37;;
12784;SDS011;6456;42.680;23.260;2023-04-24T08:54:03;10.23;;;6.47;;
12784;SDS011;6456;42.680;23.260;2023-04-24T08:56:32;8.47;;;7.10;;
12784;SDS011;6456;42.680;23.260;2023-04-24T08:59:02;8.83;;;7.00;;
12784;SDS011;6456;42.680;23.260;2023-04-24T09:01:30;12.47;;;7.30;;
12784;SDS011;6456;42.680;23.260;2023-04-24T09:03:59;10.43;;;6.80;;
12784;SDS011;6456;42.680;23.260;2023-04-24T09:06:30;8.17;;;5.93;;
12784;SDS011;6456;42.680;23.260;2023-04-24T09:08:58;8.93;;;6.13;;
12784;SDS011;6456;42.680;23.260;2023-04-24T09:11:29;8.73;;;6.50;;
12784;SDS011;6456;42.680;23.260;2023-04-24T09:13:56;10.93;;;6.73;;
12784;SDS011;6456;42.680;23.260;2023-04-24T09:16:26;10.33;;;7.23;;
12784;SDS011;6456;42.680;23.260;2023-04-24T09:18:54;9.53;;;6.00;;
12784;SDS011;6456;42.680;23.260;2023-04-24T09:21:22;8.30;;;7.07;;
12784;SDS011;6456;42.680;23.260;2023-04-24T09:23:58;11.27;;;6.17;;
12784;SDS011;6456;42.680;23.260;2023-04-24T09:26:26;8.00;;;5.73;;
12784;SDS011;6456;42.680;23.260;2023-04-24T09:28:58;6.70;;;5.67;;
12784;SDS011;6456;42.680;23.260;2023-04-24T09:31:26;7.67;;;6.00;;
12784;SDS011;6456;42.680;23.260;2023-04-24T09:33:55;6.20;;;5.60;;
12784;SDS011;6456;42.680;23.260;2023-04-24T09:36:27;5.97;;;5.47;;
12784;SDS011;6456;42.680;23.260;2023-04-24T09:38:59;7.43;;;5.60;;
12784;SDS011;6456;42.680;23.260;2023-04-24T09:41:26;8.33;;;5.63;;
12784;SDS011;6456;42.680;23.260;2023-04-24T09:43:54;7.33;;;5.10;;
12784;SDS011;6456;42.680;23.260;2023-04-24T09:46:28;10.77;;;6.07;;
12784;SDS011;6456;42.680;23.260;2023-04-24T09:48:56;5.80;;;5.00;;
12784;SDS011;6456;42.680;23.260;2023-04-24T09:51:33;6.77;;;4.90;;
12784;SDS011;6456;42.680;23.260;2023-04-24T09:54:03;5.87;;;4.80;;
12784;SDS011;6456;42.680;23.260;2023-04-24T09:56:32;6.20;;;5.07;;
12784;SDS011;6456;42.680;23.260;2023-04-24T09:59:05;5.77;;;5.23;;
12784;SDS011;6456;42.680;23.260;2023-04-24T10:01:33;5.33;;;4.80;;
12784;SDS011;6456;42.680;23.260;2023-04-24T10:04:00;9.47;;;5.10;;
12784;SDS011;6456;42.680;23.260;2023-04-24T10:06:31;8.57;;;5.77;;
12784;SDS011;6456;42.680;23.260;2023-04-24T10:08:59;8.23;;;5.53;;
12784;SDS011;6456;42.680;23.260;2023-04-24T10:11:28;6.93;;;5.07;;
12784;SDS011;6456;42.680;23.260;2023-04-24T10:13:56;5.67;;;4.63;;
12784;SDS011;6456;42.680;23.260;2023-04-24T10:16:24;7.00;;;4.70;;
12784;SDS011;6456;42.680;23.260;2023-04-24T10:18:53;8.30;;;5.10;;
12784;SDS011;6456;42.680;23.260;2023-04-24T10:21:21;6.63;;;5.00;;
12784;SDS011;6456;42.680;23.260;2023-04-24T10:23:49;5.10;;;4.33;;
12784;SDS011;6456;42.680;23.260;2023-04-24T10:26:17;7.77;;;4.90;;
12784;SDS011;6456;42.680;23.260;2023-04-24T10:28:47;6.87;;;4.63;;
12784;SDS011;6456;42.680;23.260;2023-04-24T10:31:14;7.17;;;3.70;;
12784;SDS011;6456;42.680;23.260;2023-04-24T10:33:41;3.97;;;3.13;;
12784;SDS011;6456;42.680;23.260;2023-04-24T10:36:09;3.37;;;3.07;;
12784;SDS011;6456;42.680;23.260;2023-04-24T10:38:41;3.30;;;3.00;;
12784;SDS011;6456;42.680;23.260;2023-04-24T10:41:13;4.20;;;3.27;;
12784;SDS011;6456;42.680;23.260;2023-04-24T10:43:44;6.00;;;3.28;;
12784;SDS011;6456;42.680;23.260;2023-04-24T10:46:17;4.00;;;3.27;;
12784;SDS011;6456;42.680;23.260;2023-04-24T10:48:51;4.65;;;2.72;;
12784;SDS011;6456;42.680;23.260;2023-04-24T10:51:21;4.40;;;3.40;;
12784;SDS011;6456;42.680;23.260;2023-04-24T10:53:49;3.57;;;3.00;;
12784;SDS011;6456;42.680;23.260;2023-04-24T10:56:17;4.57;;;3.15;;
12784;SDS011;6456;42.680;23.260;2023-04-24T10:58:45;5.25;;;3.10;;
12784;SDS011;6456;42.680;23.260;2023-04-24T11:01:24;4.43;;;2.72;;
12784;SDS011;6456;42.680;23.260;2023-04-24T11:03:54;3.25;;;2.95;;
12784;SDS011;6456;42.680;23.260;2023-04-24T11:06:28;8.88;;;3.17;;
12784;SDS011;6456;42.680;23.260;2023-04-24T11:08:59;4.28;;;2.70;;
12784;SDS011;6456;42.680;23.260;2023-04-24T11:11:30;3.28;;;2.78;;
12784;SDS011;6456;42.680;23.260;2023-04-24T11:14:05;3.80;;;3.40;;
12784;SDS011;6456;42.680;23.260;2023-04-24T11:16:34;6.32;;;3.67;;
12784;SDS011;6456;42.680;23.260;2023-04-24T11:19:04;3.80;;;3.40;;
12784;SDS011;6456;42.680;23.260;2023-04-24T11:21:38;5.87;;;4.07;;
12784;SDS011;6456;42.680;23.260;2023-04-24T11:24:26;3.83;;;3.43;;
12784;SDS011;6456;42.680;23.260;2023-04-24T11:26:57;3.37;;;3.10;;
12784;SDS011;6456;42.680;23.260;2023-04-24T11:29:40;3.97;;;3.10;;
12784;SDS011;6456;42.680;23.260;2023-04-24T11:32:19;3.50;;;3.20;;
12784;SDS011;6456;42.680;23.260;2023-04-24T11:34:51;3.20;;;3.00;;
12784;SDS011;6456;42.680;23.260;2023-04-24T11:37:19;4.00;;;3.23;;
12784;SDS011;6456;42.680;23.260;2023-04-24T11:39:48;3.77;;;3.47;;
12784;SDS011;6456;42.680;23.260;2023-04-24T11:42:17;4.57;;;3.50;;
12784;SDS011;6456;42.680;23.260;2023-04-24T11:44:46;4.60;;;4.00;;
12784;SDS011;6456;42.680;23.260;2023-04-24T11:47:14;5.93;;;3.90;;
12784;SDS011;6456;42.680;23.260;2023-04-24T11:49:42;4.67;;;4.27;;
12784;SDS011;6456;42.680;23.260;2023-04-24T11:52:09;3.53;;;3.23;;
12784;SDS011;6456;42.680;23.260;2023-04-24T11:54:36;5.33;;;3.83;;
12784;SDS011;6456;42.680;23.260;2023-04-24T11:57:04;4.63;;;3.77;;
12784;SDS011;6456;42.680;23.260;2023-04-24T11:59:35;4.27;;;3.60;;
12784;SDS011;6456;42.680;23.260;2023-04-24T12:02:04;3.95;;;3.55;;
12784;SDS011;6456;42.680;23.260;2023-04-24T12:04:38;4.70;;;3.67;;
12784;SDS011;6456;42.680;23.260;2023-04-24T12:07:06;3.97;;;3.60;;
12784;SDS011;6456;42.680;23.260;2023-04-24T12:09:42;4.13;;;3.80;;
12784;SDS011;6456;42.680;23.260;2023-04-24T12:12:10;4.10;;;3.70;;
12784;SDS011;6456;42.680;23.260;2023-04-24T12:14:47;6.90;;;4.03;;
12784;SDS011;6456;42.680;23.260;2023-04-24T12:17:16;3.20;;;2.90;;
12784;SDS011;6456;42.680;23.260;2023-04-24T12:19:46;4.80;;;3.42;;
12784;SDS011;6456;42.680;23.260;2023-04-24T12:22:15;4.00;;;3.70;;
12784;SDS011;6456;42.680;23.260;2023-04-24T12:24:58;7.20;;;3.60;;
12784;SDS011;6456;42.680;23.260;2023-04-24T12:27:28;5.47;;;3.45;;
12784;SDS011;6456;42.680;23.260;2023-04-24T12:29:57;3.58;;;3.25;;
12784;SDS011;6456;42.680;23.260;2023-04-24T12:32:26;3.67;;;3.07;;
12784;SDS011;6456;42.680;23.260;2023-04-24T12:34:53;3.33;;;3.05;;
12784;SDS011;6456;42.680;23.260;2023-04-24T12:37:20;7.53;;;3.50;;
12784;SDS011;6456;42.680;23.260;2023-04-24T12:39:58;6.70;;;3.40;;
12784;SDS011;6456;42.680;23.260;2023-04-24T12:42:26;3.90;;;3.50;;
12784;SDS011;6456;42.680;23.260;2023-04-24T12:44:57;5.70;;;3.60;;
12784;SDS011;6456;42.680;23.260;2023-04-24T12:47:27;3.83;;;3.42;;
12784;SDS011;6456;42.680;23.260;2023-04-24T12:49:54;3.50;;;3.20;;
12784;SDS011;6456;42.680;23.260;2023-04-24T12:52:21;4.22;;;3.58;;
12784;SDS011;6456;42.680;23.260;2023-04-24T12:54:49;3.50;;;3.20;;
12784;SDS011;6456;42.680;23.260;2023-04-24T12:57:16;3.53;;;3.30;;
12784;SDS011;6456;42.680;23.260;2023-04-24T12:59:43;5.32;;;3.20;;
12784;SDS011;6456;42.680;23.260;2023-04-24T13:02:10;3.88;;;3.42;;
12784;SDS011;6456;42.680;23.260;2023-04-24T13:04:39;7.93;;;3.55;;
12784;SDS011;6456;42.680;23.260;2023-04-24T13:07:06;4.55;;;3.83;;
12784;SDS011;6456;42.680;23.260;2023-04-24T13:09:34;6.93;;;3.55;;
12784;SDS011;6456;42.680;23.260;2023-04-24T13:12:01;3.78;;;3.33;;
12784;SDS011;6456;42.680;23.260;2023-04-24T13:17:14;3.60;;;3.30;;
12784;SDS011;6456;42.680;23.260;2023-04-24T13:19:43;4.15;;;3.00;;
12784;SDS011;6456;42.680;23.260;2023-04-24T13:22:11;3.25;;;2.90;;
12784;SDS011;6456;42.680;23.260;2023-04-24T13:24:38;3.30;;;3.00;;
12784;SDS011;6456;42.680;23.260;2023-04-24T13:27:06;2.80;;;2.60;;
12784;SDS011;6456;42.680;23.260;2023-04-24T13:29:34;4.25;;;3.20;;
12784;SDS011;6456;42.680;23.260;2023-04-24T13:32:01;5.38;;;3.60;;
12784;SDS011;6456;42.680;23.260;2023-04-24T13:34:27;3.17;;;2.92;;
12784;SDS011;6456;42.680;23.260;2023-04-24T13:36:56;3.53;;;2.60;;
12784;SDS011;6456;42.680;23.260;2023-04-24T13:39:24;4.28;;;2.97;;
12784;SDS011;6456;42.680;23.260;2023-04-24T13:41:51;2.92;;;2.72;;
12784;SDS011;6456;42.680;23.260;2023-04-24T13:44:19;3.38;;;3.08;;
12784;SDS011;6456;42.680;23.260;2023-04-24T13:46:48;4.43;;;2.67;;
12784;SDS011;6456;42.680;23.260;2023-04-24T13:49:16;4.28;;;3.30;;
12784;SDS011;6456;42.680;23.260;2023-04-24T13:51:44;2.95;;;2.75;;
12784;SDS011;6456;42.680;23.260;2023-04-24T13:54:13;4.07;;;2.95;;
12784;SDS011;6456;42.680;23.260;2023-04-24T13:56:41;4.80;;;2.90;;
12784;SDS011;6456;42.680;23.260;2023-04-24T13:59:08;3.10;;;2.80;;
12784;SDS011;6456;42.680;23.260;2023-04-24T14:01:35;3.47;;;3.17;;
12784;SDS011;6456;42.680;23.260;2023-04-24T14:04:01;3.17;;;2.88;;
12784;SDS011;6456;42.680;23.260;2023-04-24T14:06:28;2.80;;;2.60;;
12784;SDS011;6456;42.680;23.260;2023-04-24T14:08:56;3.80;;;2.92;;
12784;SDS011;6456;42.680;23.260;2023-04-24T14:11:24;3.28;;;3.00;;
12784;SDS011;6456;42.680;23.260;2023-04-24T14:13:53;6.07;;;2.88;;
12784;SDS011;6456;42.680;23.260;2023-04-24T14:16:21;4.30;;;2.90;;
12784;SDS011;6456;42.680;23.260;2023-04-24T14:18:48;2.95;;;2.63;;
12784;SDS011;6456;42.680;23.260;2023-04-24T14:21:15;5.80;;;3.10;;
12784;SDS011;6456;42.680;23.260;2023-04-24T14:23:42;2.70;;;2.50;;
12784;SDS011;6456;42.680;23.260;2023-04-24T14:26:09;4.45;;;2.85;;
12784;SDS011;6456;42.680;23.260;2023-04-24T14:28:37;5.05;;;3.20;;
12784;SDS011;6456;42.680;23.260;2023-04-24T14:31:04;2.80;;;2.60;;
12784;SDS011;6456;42.680;23.260;2023-04-24T14:33:32;2.97;;;2.60;;
12784;SDS011;6456;42.680;23.260;2023-04-24T14:35:59;11.35;;;3.40;;
12784;SDS011;6456;42.680;23.260;2023-04-24T14:38:27;7.10;;;3.42;;
12784;SDS011;6456;42.680;23.260;2023-04-24T14:40:55;11.38;;;3.75;;
12784;SDS011;6456;42.680;23.260;2023-04-24T14:43:22;6.78;;;3.13;;
12784;SDS011;6456;42.680;23.260;2023-04-24T14:45:50;3.22;;;2.92;;
12784;SDS011;6456;42.680;23.260;2023-04-24T14:48:17;4.78;;;3.17;;
12784;SDS011;6456;42.680;23.260;2023-04-24T14:50:43;5.93;;;3.28;;
12784;SDS011;6456;42.680;23.260;2023-04-24T14:53:10;6.03;;;2.97;;
12784;SDS011;6456;42.680;23.260;2023-04-24T14:55:37;4.97;;;4.47;;